sensor_id;sensor_type;location;lat;lon;timestamp;temperature;humidity
3001;DHT22;1510;51.072;6.678;2022-11-15T00:02:22;9.30;99.90
3001;DHT22;1510;51.072;6.678;2022-11-15T00:04:48;9.50;99.90
3001;DHT22;1510;51.072;6.678;2022-11-15T00:07:15;9.50;99.90
3001;DHT22;1510;51.072;6.678;2022-11-15T00:09:42;9.40;99.90
3001;DHT22;1510;51.072;6.678;2022-11-15T00:12:09;9.50;99.90
3001;DHT22;1510;51.072;6.678;2022-11-15T00:14:35;9.50;99.90
3001;DHT22;1510;51.072;6.678;2022-11-15T00:17:03;9.50;99.90
3001;DHT22;1510;51.072;6.678;2022-11-15T00:19:30;9.50;99.90
3001;DHT22;1510;51.072;6.678;2022-11-15T00:21:57;9.60;99.90
3001;DHT22;1510;51.072;6.678;2022-11-15T00:24:24;9.60;99.90
3001;DHT22;1510;51.072;6.678;2022-11-15T00:26:50;9.70;99.90
3001;DHT22;1510;51.072;6.678;2022-11-15T00:29:17;9.80;99.90
3001;DHT22;1510;51.072;6.678;2022-11-15T00:31:44;9.70;99.90
3001;DHT22;1510;51.072;6.678;2022-11-15T00:34:12;9.80;99.90
3001;DHT22;1510;51.072;6.678;2022-11-15T00:36:39;9.80;99.90
3001;DHT22;1510;51.072;6.678;2022-11-15T00:39:06;9.80;99.90
3001;DHT22;1510;51.072;6.678;2022-11-15T00:41:32;9.90;99.90
3001;DHT22;1510;51.072;6.678;2022-11-15T00:43:59;9.90;99.90
3001;DHT22;1510;51.072;6.678;2022-11-15T00:46:26;9.90;99.90
3001;DHT22;1510;51.072;6.678;2022-11-15T00:48:53;9.90;99.90
3001;DHT22;1510;51.072;6.678;2022-11-15T00:51:21;9.90;99.90
3001;DHT22;1510;51.072;6.678;2022-11-15T00:53:47;9.90;99.90
3001;DHT22;1510;51.072;6.678;2022-11-15T00:56:14;9.90;99.90
3001;DHT22;1510;51.072;6.678;2022-11-15T00:58:41;10.00;99.90
3001;DHT22;1510;51.072;6.678;2022-11-15T01:01:09;10.00;99.90
3001;DHT22;1510;51.072;6.678;2022-11-15T01:03:37;10.00;99.90
3001;DHT22;1510;51.072;6.678;2022-11-15T01:06:05;10.00;99.90
3001;DHT22;1510;51.072;6.678;2022-11-15T01:08:33;10.00;99.90
3001;DHT22;1510;51.072;6.678;2022-11-15T01:11:01;10.10;99.90
3001;DHT22;1510;51.072;6.678;2022-11-15T01:13:30;10.20;99.90
3001;DHT22;1510;51.072;6.678;2022-11-15T01:15:57;10.10;99.90
3001;DHT22;1510;51.072;6.678;2022-11-15T01:18:24;10.10;99.90
3001;DHT22;1510;51.072;6.678;2022-11-15T01:20:51;10.10;99.90
3001;DHT22;1510;51.072;6.678;2022-11-15T01:23:18;10.00;99.90
3001;DHT22;1510;51.072;6.678;2022-11-15T01:25:46;10.00;99.90
3001;DHT22;1510;51.072;6.678;2022-11-15T01:28:13;10.00;99.90
3001;DHT22;1510;51.072;6.678;2022-11-15T01:30:39;10.00;99.90
3001;DHT22;1510;51.072;6.678;2022-11-15T01:33:06;10.00;99.90
3001;DHT22;1510;51.072;6.678;2022-11-15T01:35:33;9.90;99.90
3001;DHT22;1510;51.072;6.678;2022-11-15T01:37:59;10.00;99.90
3001;DHT22;1510;51.072;6.678;2022-11-15T01:40:26;9.90;99.90
3001;DHT22;1510;51.072;6.678;2022-11-15T01:42:54;9.90;99.90
3001;DHT22;1510;51.072;6.678;2022-11-15T01:45:21;10.00;99.90
3001;DHT22;1510;51.072;6.678;2022-11-15T01:47:51;10.00;99.90
3001;DHT22;1510;51.072;6.678;2022-11-15T01:50:22;10.00;99.90
3001;DHT22;1510;51.072;6.678;2022-11-15T01:52:51;10.10;99.90
3001;DHT22;1510;51.072;6.678;2022-11-15T01:55:21;10.20;99.90
3001;DHT22;1510;51.072;6.678;2022-11-15T01:57:53;10.30;99.90
3001;DHT22;1510;51.072;6.678;2022-11-15T02:00:21;10.30;99.90
3001;DHT22;1510;51.072;6.678;2022-11-15T02:02:48;10.30;99.90
3001;DHT22;1510;51.072;6.678;2022-11-15T02:05:15;10.30;99.90
3001;DHT22;1510;51.072;6.678;2022-11-15T02:07:42;10.30;99.90
3001;DHT22;1510;51.072;6.678;2022-11-15T02:10:11;10.40;99.90
3001;DHT22;1510;51.072;6.678;2022-11-15T02:12:38;10.50;99.90
3001;DHT22;1510;51.072;6.678;2022-11-15T02:15:06;10.40;99.90
3001;DHT22;1510;51.072;6.678;2022-11-15T02:17:51;10.50;99.90
3001;DHT22;1510;51.072;6.678;2022-11-15T02:20:39;10.50;99.90
3001;DHT22;1510;51.072;6.678;2022-11-15T02:23:49;10.50;99.90
3001;DHT22;1510;51.072;6.678;2022-11-15T02:29:53;10.50;99.90
3001;DHT22;1510;51.072;6.678;2022-11-15T02:32:28;10.50;99.90
3001;DHT22;1510;51.072;6.678;2022-11-15T02:35:01;10.50;99.90
3001;DHT22;1510;51.072;6.678;2022-11-15T02:37:33;10.50;99.90
3001;DHT22;1510;51.072;6.678;2022-11-15T02:40:06;10.50;99.90
3001;DHT22;1510;51.072;6.678;2022-11-15T02:42:43;10.50;99.90
3001;DHT22;1510;51.072;6.678;2022-11-15T02:45:31;10.50;99.90
3001;DHT22;1510;51.072;6.678;2022-11-15T02:48:02;10.50;99.90
3001;DHT22;1510;51.072;6.678;2022-11-15T02:50:32;10.50;99.90
3001;DHT22;1510;51.072;6.678;2022-11-15T02:52:59;10.50;99.90
3001;DHT22;1510;51.072;6.678;2022-11-15T02:55:28;10.60;99.90
3001;DHT22;1510;51.072;6.678;2022-11-15T02:58:08;10.60;99.90
3001;DHT22;1510;51.072;6.678;2022-11-15T03:00:45;10.60;99.90
3001;DHT22;1510;51.072;6.678;2022-11-15T03:03:29;10.60;99.90
3001;DHT22;1510;51.072;6.678;2022-11-15T03:06:09;10.60;99.90
3001;DHT22;1510;51.072;6.678;2022-11-15T03:08:48;10.70;99.90
3001;DHT22;1510;51.072;6.678;2022-11-15T03:11:18;10.70;99.90
3001;DHT22;1510;51.072;6.678;2022-11-15T03:13:51;10.70;99.90
3001;DHT22;1510;51.072;6.678;2022-11-15T03:16:25;10.70;99.90
3001;DHT22;1510;51.072;6.678;2022-11-15T03:18:59;10.80;99.90
3001;DHT22;1510;51.072;6.678;2022-11-15T03:21:28;10.80;99.90
3001;DHT22;1510;51.072;6.678;2022-11-15T03:23:58;10.80;99.90
3001;DHT22;1510;51.072;6.678;2022-11-15T03:26:28;10.80;99.90
3001;DHT22;1510;51.072;6.678;2022-11-15T03:28:58;10.80;99.90
3001;DHT22;1510;51.072;6.678;2022-11-15T03:31:30;10.90;99.90
3001;DHT22;1510;51.072;6.678;2022-11-15T03:34:21;10.90;99.90
3001;DHT22;1510;51.072;6.678;2022-11-15T03:36:50;10.90;99.90
3001;DHT22;1510;51.072;6.678;2022-11-15T03:39:17;10.90;99.90
3001;DHT22;1510;51.072;6.678;2022-11-15T03:41:48;10.80;99.90
3001;DHT22;1510;51.072;6.678;2022-11-15T03:44:23;10.80;99.90
3001;DHT22;1510;51.072;6.678;2022-11-15T03:46:58;10.90;99.90
3001;DHT22;1510;51.072;6.678;2022-11-15T03:49:32;10.80;99.90
3001;DHT22;1510;51.072;6.678;2022-11-15T03:52:00;10.80;99.90
3001;DHT22;1510;51.072;6.678;2022-11-15T03:54:28;10.90;99.90
3001;DHT22;1510;51.072;6.678;2022-11-15T03:56:55;10.80;99.90
3001;DHT22;1510;51.072;6.678;2022-11-15T03:59:21;11.00;99.90
3001;DHT22;1510;51.072;6.678;2022-11-15T04:01:48;10.90;99.90
3001;DHT22;1510;51.072;6.678;2022-11-15T04:04:15;10.90;99.90
3001;DHT22;1510;51.072;6.678;2022-11-15T04:06:43;11.00;99.90
3001;DHT22;1510;51.072;6.678;2022-11-15T04:09:10;11.10;99.90
3001;DHT22;1510;51.072;6.678;2022-11-15T04:11:37;11.00;99.90
3001;DHT22;1510;51.072;6.678;2022-11-15T04:14:03;11.10;99.90
3001;DHT22;1510;51.072;6.678;2022-11-15T04:16:30;11.10;99.90
3001;DHT22;1510;51.072;6.678;2022-11-15T04:18:57;11.20;99.90
3001;DHT22;1510;51.072;6.678;2022-11-15T04:21:43;11.20;99.90
3001;DHT22;1510;51.072;6.678;2022-11-15T04:24:27;11.30;99.90
3001;DHT22;1510;51.072;6.678;2022-11-15T04:26:53;11.30;99.90
3001;DHT22;1510;51.072;6.678;2022-11-15T04:29:20;11.30;99.90
3001;DHT22;1510;51.072;6.678;2022-11-15T04:32:02;11.40;99.90
3001;DHT22;1510;51.072;6.678;2022-11-15T04:34:29;11.20;99.90
3001;DHT22;1510;51.072;6.678;2022-11-15T04:36:57;11.30;99.90
3001;DHT22;1510;51.072;6.678;2022-11-15T04:39:39;11.30;99.90
3001;DHT22;1510;51.072;6.678;2022-11-15T04:42:06;11.40;99.90
3001;DHT22;1510;51.072;6.678;2022-11-15T04:44:34;11.20;99.90
3001;DHT22;1510;51.072;6.678;2022-11-15T04:47:01;11.20;99.90
3001;DHT22;1510;51.072;6.678;2022-11-15T04:49:28;11.20;99.90
3001;DHT22;1510;51.072;6.678;2022-11-15T04:51:54;11.20;99.90
3001;DHT22;1510;51.072;6.678;2022-11-15T04:54:22;11.20;99.90
3001;DHT22;1510;51.072;6.678;2022-11-15T04:56:50;11.20;99.90
3001;DHT22;1510;51.072;6.678;2022-11-15T04:59:17;11.20;99.90
3001;DHT22;1510;51.072;6.678;2022-11-15T05:01:44;11.20;99.90
3001;DHT22;1510;51.072;6.678;2022-11-15T05:04:10;11.20;99.90
3001;DHT22;1510;51.072;6.678;2022-11-15T05:06:46;11.20;99.90
3001;DHT22;1510;51.072;6.678;2022-11-15T05:09:13;11.20;99.90
3001;DHT22;1510;51.072;6.678;2022-11-15T05:11:41;11.20;99.90
3001;DHT22;1510;51.072;6.678;2022-11-15T05:14:08;11.20;99.90
3001;DHT22;1510;51.072;6.678;2022-11-15T05:16:35;11.20;99.90
3001;DHT22;1510;51.072;6.678;2022-11-15T05:19:02;11.20;99.90
3001;DHT22;1510;51.072;6.678;2022-11-15T05:21:29;11.20;99.90
3001;DHT22;1510;51.072;6.678;2022-11-15T05:23:56;11.20;99.90
3001;DHT22;1510;51.072;6.678;2022-11-15T05:26:23;11.20;99.90
3001;DHT22;1510;51.072;6.678;2022-11-15T05:28:53;11.20;99.90
3001;DHT22;1510;51.072;6.678;2022-11-15T05:31:20;11.10;99.90
3001;DHT22;1510;51.072;6.678;2022-11-15T05:33:49;11.20;99.90
3001;DHT22;1510;51.072;6.678;2022-11-15T05:36:20;11.10;99.90
3001;DHT22;1510;51.072;6.678;2022-11-15T05:38:48;11.20;99.90
3001;DHT22;1510;51.072;6.678;2022-11-15T05:41:16;11.20;99.90
3001;DHT22;1510;51.072;6.678;2022-11-15T05:43:44;11.10;99.90
3001;DHT22;1510;51.072;6.678;2022-11-15T05:46:13;11.20;99.90
3001;DHT22;1510;51.072;6.678;2022-11-15T05:48:41;11.20;99.90
3001;DHT22;1510;51.072;6.678;2022-11-15T05:51:09;11.20;99.90
3001;DHT22;1510;51.072;6.678;2022-11-15T05:53:36;11.30;99.90
3001;DHT22;1510;51.072;6.678;2022-11-15T05:56:04;11.20;99.90
3001;DHT22;1510;51.072;6.678;2022-11-15T05:58:32;11.20;99.90
3001;DHT22;1510;51.072;6.678;2022-11-15T06:00:59;11.20;99.90
3001;DHT22;1510;51.072;6.678;2022-11-15T06:03:28;11.20;99.90
3001;DHT22;1510;51.072;6.678;2022-11-15T06:05:55;11.20;99.90
3001;DHT22;1510;51.072;6.678;2022-11-15T06:08:22;11.10;99.90
3001;DHT22;1510;51.072;6.678;2022-11-15T06:10:49;11.10;99.90
3001;DHT22;1510;51.072;6.678;2022-11-15T06:13:16;11.00;99.90
3001;DHT22;1510;51.072;6.678;2022-11-15T06:15:42;10.90;99.90
3001;DHT22;1510;51.072;6.678;2022-11-15T06:18:09;10.90;99.90
3001;DHT22;1510;51.072;6.678;2022-11-15T06:20:37;10.80;99.90
3001;DHT22;1510;51.072;6.678;2022-11-15T06:23:04;10.80;99.90
3001;DHT22;1510;51.072;6.678;2022-11-15T06:25:31;10.80;99.90
3001;DHT22;1510;51.072;6.678;2022-11-15T06:27:58;10.70;99.90
3001;DHT22;1510;51.072;6.678;2022-11-15T06:30:26;10.60;99.90
3001;DHT22;1510;51.072;6.678;2022-11-15T06:32:59;10.40;99.90
3001;DHT22;1510;51.072;6.678;2022-11-15T06:35:26;10.30;99.90
3001;DHT22;1510;51.072;6.678;2022-11-15T06:37:55;10.10;99.90
3001;DHT22;1510;51.072;6.678;2022-11-15T06:40:21;10.10;99.90
3001;DHT22;1510;51.072;6.678;2022-11-15T06:42:48;10.00;99.90
3001;DHT22;1510;51.072;6.678;2022-11-15T06:45:15;9.90;99.90
3001;DHT22;1510;51.072;6.678;2022-11-15T06:47:44;9.90;99.90
3001;DHT22;1510;51.072;6.678;2022-11-15T06:50:12;9.80;99.90
3001;DHT22;1510;51.072;6.678;2022-11-15T06:52:38;9.70;99.90
3001;DHT22;1510;51.072;6.678;2022-11-15T06:55:16;9.70;99.90
3001;DHT22;1510;51.072;6.678;2022-11-15T06:57:55;9.60;99.90
3001;DHT22;1510;51.072;6.678;2022-11-15T07:00:22;9.70;99.90
3001;DHT22;1510;51.072;6.678;2022-11-15T07:02:49;9.60;99.90
3001;DHT22;1510;51.072;6.678;2022-11-15T07:05:16;9.70;99.90
3001;DHT22;1510;51.072;6.678;2022-11-15T07:08:06;9.80;99.90
3001;DHT22;1510;51.072;6.678;2022-11-15T07:10:55;9.80;99.90
3001;DHT22;1510;51.072;6.678;2022-11-15T07:13:40;9.90;99.90
3001;DHT22;1510;51.072;6.678;2022-11-15T07:16:38;10.00;99.90
3001;DHT22;1510;51.072;6.678;2022-11-15T07:19:04;10.00;99.90
3001;DHT22;1510;51.072;6.678;2022-11-15T07:21:32;10.10;99.90
3001;DHT22;1510;51.072;6.678;2022-11-15T07:24:13;10.20;99.90
3001;DHT22;1510;51.072;6.678;2022-11-15T07:26:45;10.30;99.90
3001;DHT22;1510;51.072;6.678;2022-11-15T07:29:12;10.50;99.90
3001;DHT22;1510;51.072;6.678;2022-11-15T07:35:18;10.80;99.90
3001;DHT22;1510;51.072;6.678;2022-11-15T07:38:18;11.00;99.90
3001;DHT22;1510;51.072;6.678;2022-11-15T07:41:15;11.20;99.90
3001;DHT22;1510;51.072;6.678;2022-11-15T07:43:57;11.50;99.90
3001;DHT22;1510;51.072;6.678;2022-11-15T07:46:24;11.60;99.90
3001;DHT22;1510;51.072;6.678;2022-11-15T07:48:50;11.70;99.90
3001;DHT22;1510;51.072;6.678;2022-11-15T07:51:58;11.70;99.90
3001;DHT22;1510;51.072;6.678;2022-11-15T08:04:59;11.80;99.90
3001;DHT22;1510;51.072;6.678;2022-11-15T08:07:28;11.90;99.90
3001;DHT22;1510;51.072;6.678;2022-11-15T08:09:56;11.80;99.90
3001;DHT22;1510;51.072;6.678;2022-11-15T08:12:23;11.80;99.90
3001;DHT22;1510;51.072;6.678;2022-11-15T08:14:50;11.70;99.90
3001;DHT22;1510;51.072;6.678;2022-11-15T08:17:17;11.70;99.90
3001;DHT22;1510;51.072;6.678;2022-11-15T08:19:43;11.60;99.90
3001;DHT22;1510;51.072;6.678;2022-11-15T08:22:12;11.60;99.90
3001;DHT22;1510;51.072;6.678;2022-11-15T08:24:38;11.50;99.90
3001;DHT22;1510;51.072;6.678;2022-11-15T08:27:05;11.50;99.90
3001;DHT22;1510;51.072;6.678;2022-11-15T08:29:40;11.50;99.90
3001;DHT22;1510;51.072;6.678;2022-11-15T08:32:08;11.50;99.90
3001;DHT22;1510;51.072;6.678;2022-11-15T08:34:35;11.60;99.90
3001;DHT22;1510;51.072;6.678;2022-11-15T08:37:01;11.60;99.90
3001;DHT22;1510;51.072;6.678;2022-11-15T08:39:30;11.80;99.90
3001;DHT22;1510;51.072;6.678;2022-11-15T08:41:57;11.80;99.90
3001;DHT22;1510;51.072;6.678;2022-11-15T08:44:42;11.90;99.90
3001;DHT22;1510;51.072;6.678;2022-11-15T08:47:11;12.00;99.90
3001;DHT22;1510;51.072;6.678;2022-11-15T08:49:39;12.00;99.90
3001;DHT22;1510;51.072;6.678;2022-11-15T08:52:05;12.00;99.90
3001;DHT22;1510;51.072;6.678;2022-11-15T08:54:34;12.20;99.90
3001;DHT22;1510;51.072;6.678;2022-11-15T08:57:00;12.10;99.90
3001;DHT22;1510;51.072;6.678;2022-11-15T08:59:27;12.10;99.90
3001;DHT22;1510;51.072;6.678;2022-11-15T09:01:54;12.20;99.90
3001;DHT22;1510;51.072;6.678;2022-11-15T09:04:21;12.20;99.90
3001;DHT22;1510;51.072;6.678;2022-11-15T09:06:47;12.30;99.90
3001;DHT22;1510;51.072;6.678;2022-11-15T09:09:14;12.30;99.90
3001;DHT22;1510;51.072;6.678;2022-11-15T09:11:42;12.40;99.90
3001;DHT22;1510;51.072;6.678;2022-11-15T09:14:10;12.50;99.90
3001;DHT22;1510;51.072;6.678;2022-11-15T09:16:37;12.50;99.90
3001;DHT22;1510;51.072;6.678;2022-11-15T09:19:04;12.50;98.70
3001;DHT22;1510;51.072;6.678;2022-11-15T09:21:31;12.50;98.10
3001;DHT22;1510;51.072;6.678;2022-11-15T09:23:58;12.50;98.60
3001;DHT22;1510;51.072;6.678;2022-11-15T09:26:25;12.40;99.40
3001;DHT22;1510;51.072;6.678;2022-11-15T09:28:53;12.40;98.60
3001;DHT22;1510;51.072;6.678;2022-11-15T09:31:20;12.40;99.00
3001;DHT22;1510;51.072;6.678;2022-11-15T09:33:47;12.50;99.70
3001;DHT22;1510;51.072;6.678;2022-11-15T09:36:13;12.50;99.50
3001;DHT22;1510;51.072;6.678;2022-11-15T09:38:40;12.50;99.70
3001;DHT22;1510;51.072;6.678;2022-11-15T09:41:20;12.50;99.80
3001;DHT22;1510;51.072;6.678;2022-11-15T09:43:58;12.60;98.80
3001;DHT22;1510;51.072;6.678;2022-11-15T09:49:17;12.60;98.10
3001;DHT22;1510;51.072;6.678;2022-11-15T09:51:47;12.70;95.60
3001;DHT22;1510;51.072;6.678;2022-11-15T09:54:25;12.70;94.80
3001;DHT22;1510;51.072;6.678;2022-11-15T09:56:53;12.70;94.30
3001;DHT22;1510;51.072;6.678;2022-11-15T09:59:42;12.70;95.00
3001;DHT22;1510;51.072;6.678;2022-11-15T10:02:23;12.80;94.10
3001;DHT22;1510;51.072;6.678;2022-11-15T10:04:54;12.90;93.50
3001;DHT22;1510;51.072;6.678;2022-11-15T10:07:25;13.00;95.60
3001;DHT22;1510;51.072;6.678;2022-11-15T10:09:56;13.10;94.20
3001;DHT22;1510;51.072;6.678;2022-11-15T10:12:24;13.30;94.60
3001;DHT22;1510;51.072;6.678;2022-11-15T10:14:57;13.30;94.90
3001;DHT22;1510;51.072;6.678;2022-11-15T10:20:25;13.40;92.40
3001;DHT22;1510;51.072;6.678;2022-11-15T10:22:54;13.60;91.30
3001;DHT22;1510;51.072;6.678;2022-11-15T10:25:23;13.70;90.60
3001;DHT22;1510;51.072;6.678;2022-11-15T10:27:55;13.90;90.80
3001;DHT22;1510;51.072;6.678;2022-11-15T10:30:30;14.10;90.00
3001;DHT22;1510;51.072;6.678;2022-11-15T10:32:57;14.10;88.40
3001;DHT22;1510;51.072;6.678;2022-11-15T10:35:27;13.90;86.90
3001;DHT22;1510;51.072;6.678;2022-11-15T10:39:05;13.90;85.90
3001;DHT22;1510;51.072;6.678;2022-11-15T10:41:32;13.80;88.00
3001;DHT22;1510;51.072;6.678;2022-11-15T10:44:22;13.80;85.50
3001;DHT22;1510;51.072;6.678;2022-11-15T10:47:16;13.70;85.50
3001;DHT22;1510;51.072;6.678;2022-11-15T10:50:00;13.60;85.70
3001;DHT22;1510;51.072;6.678;2022-11-15T10:52:28;13.60;81.10
3001;DHT22;1510;51.072;6.678;2022-11-15T10:54:59;13.70;82.60
3001;DHT22;1510;51.072;6.678;2022-11-15T10:57:28;13.70;81.80
3001;DHT22;1510;51.072;6.678;2022-11-15T10:59:58;13.60;81.70
3001;DHT22;1510;51.072;6.678;2022-11-15T11:02:32;13.60;80.20
3001;DHT22;1510;51.072;6.678;2022-11-15T11:05:01;13.50;79.10
3001;DHT22;1510;51.072;6.678;2022-11-15T11:07:30;13.60;80.20
3001;DHT22;1510;51.072;6.678;2022-11-15T11:09:59;13.70;81.40
3001;DHT22;1510;51.072;6.678;2022-11-15T11:12:30;13.80;77.30
3001;DHT22;1510;51.072;6.678;2022-11-15T11:14:59;13.80;76.10
3001;DHT22;1510;51.072;6.678;2022-11-15T11:17:36;13.90;78.20
3001;DHT22;1510;51.072;6.678;2022-11-15T11:20:17;14.20;72.90
3001;DHT22;1510;51.072;6.678;2022-11-15T11:22:57;14.60;71.60
3001;DHT22;1510;51.072;6.678;2022-11-15T11:36:02;15.10;63.40
3001;DHT22;1510;51.072;6.678;2022-11-15T11:38:42;15.10;65.60
3001;DHT22;1510;51.072;6.678;2022-11-15T11:41:18;15.40;65.90
3001;DHT22;1510;51.072;6.678;2022-11-15T11:43:57;15.60;63.50
3001;DHT22;1510;51.072;6.678;2022-11-15T11:46:46;15.70;60.20
3001;DHT22;1510;51.072;6.678;2022-11-15T11:49:18;15.80;60.00
3001;DHT22;1510;51.072;6.678;2022-11-15T11:51:51;15.90;56.50
3001;DHT22;1510;51.072;6.678;2022-11-15T11:54:37;15.80;56.50
3001;DHT22;1510;51.072;6.678;2022-11-15T11:57:16;16.10;58.20
3001;DHT22;1510;51.072;6.678;2022-11-15T11:59:51;16.00;59.40
3001;DHT22;1510;51.072;6.678;2022-11-15T12:02:26;16.10;59.40
3001;DHT22;1510;51.072;6.678;2022-11-15T12:05:05;15.90;58.90
3001;DHT22;1510;51.072;6.678;2022-11-15T12:07:36;15.70;61.50
3001;DHT22;1510;51.072;6.678;2022-11-15T12:10:11;15.60;62.20
3001;DHT22;1510;51.072;6.678;2022-11-15T12:12:46;15.50;63.20
3001;DHT22;1510;51.072;6.678;2022-11-15T12:15:19;15.50;66.00
3001;DHT22;1510;51.072;6.678;2022-11-15T12:17:48;15.50;64.60
3001;DHT22;1510;51.072;6.678;2022-11-15T12:20:19;15.50;65.40
3001;DHT22;1510;51.072;6.678;2022-11-15T12:22:53;15.80;63.40
3001;DHT22;1510;51.072;6.678;2022-11-15T12:25:25;16.10;65.10
3001;DHT22;1510;51.072;6.678;2022-11-15T12:27:57;16.00;61.50
3001;DHT22;1510;51.072;6.678;2022-11-15T12:30:27;16.20;61.20
3001;DHT22;1510;51.072;6.678;2022-11-15T12:32:57;16.60;61.80
3001;DHT22;1510;51.072;6.678;2022-11-15T12:35:27;17.40;59.40
3001;DHT22;1510;51.072;6.678;2022-11-15T12:37:58;17.80;56.90
3001;DHT22;1510;51.072;6.678;2022-11-15T12:40:33;17.70;55.80
3001;DHT22;1510;51.072;6.678;2022-11-15T12:46:04;18.30;54.50
3001;DHT22;1510;51.072;6.678;2022-11-15T12:48:51;18.50;55.50
3001;DHT22;1510;51.072;6.678;2022-11-15T12:51:21;18.40;53.60
3001;DHT22;1510;51.072;6.678;2022-11-15T12:53:49;18.30;52.90
3001;DHT22;1510;51.072;6.678;2022-11-15T12:56:21;17.90;55.20
3001;DHT22;1510;51.072;6.678;2022-11-15T12:58:50;17.30;58.40
3001;DHT22;1510;51.072;6.678;2022-11-15T13:04:26;16.10;62.90
3001;DHT22;1510;51.072;6.678;2022-11-15T13:06:54;15.80;64.70
3001;DHT22;1510;51.072;6.678;2022-11-15T13:09:52;15.40;66.80
3001;DHT22;1510;51.072;6.678;2022-11-15T13:12:52;15.00;69.60
3001;DHT22;1510;51.072;6.678;2022-11-15T13:15:53;14.80;72.40
3001;DHT22;1510;51.072;6.678;2022-11-15T13:18:34;14.60;74.10
3001;DHT22;1510;51.072;6.678;2022-11-15T13:21:03;14.60;73.80
3001;DHT22;1510;51.072;6.678;2022-11-15T13:23:54;14.70;73.70
3001;DHT22;1510;51.072;6.678;2022-11-15T13:26:23;14.70;73.80
3001;DHT22;1510;51.072;6.678;2022-11-15T13:28:51;14.80;73.50
3001;DHT22;1510;51.072;6.678;2022-11-15T13:31:30;14.90;74.70
3001;DHT22;1510;51.072;6.678;2022-11-15T13:34:00;14.70;74.30
3001;DHT22;1510;51.072;6.678;2022-11-15T13:36:37;14.80;74.60
3001;DHT22;1510;51.072;6.678;2022-11-15T13:39:05;14.70;76.90
3001;DHT22;1510;51.072;6.678;2022-11-15T13:41:35;14.70;76.70
3001;DHT22;1510;51.072;6.678;2022-11-15T13:44:20;14.70;77.70
3001;DHT22;1510;51.072;6.678;2022-11-15T13:49:44;14.50;77.90
3001;DHT22;1510;51.072;6.678;2022-11-15T13:53:08;14.50;77.80
3001;DHT22;1510;51.072;6.678;2022-11-15T13:55:52;14.60;77.30
3001;DHT22;1510;51.072;6.678;2022-11-15T13:58:21;14.70;78.70
3001;DHT22;1510;51.072;6.678;2022-11-15T14:00:48;14.70;78.30
3001;DHT22;1510;51.072;6.678;2022-11-15T14:03:31;14.70;78.30
3001;DHT22;1510;51.072;6.678;2022-11-15T14:06:06;14.70;78.60
3001;DHT22;1510;51.072;6.678;2022-11-15T14:08:37;14.70;79.70
3001;DHT22;1510;51.072;6.678;2022-11-15T14:11:15;14.40;81.00
3001;DHT22;1510;51.072;6.678;2022-11-15T14:14:10;14.30;80.90
3001;DHT22;1510;51.072;6.678;2022-11-15T14:16:40;14.10;82.50
3001;DHT22;1510;51.072;6.678;2022-11-15T14:19:10;14.00;82.10
3001;DHT22;1510;51.072;6.678;2022-11-15T14:21:37;14.00;83.20
3001;DHT22;1510;51.072;6.678;2022-11-15T14:24:30;13.90;83.40
3001;DHT22;1510;51.072;6.678;2022-11-15T14:27:26;13.90;83.80
3001;DHT22;1510;51.072;6.678;2022-11-15T14:29:53;13.80;84.70
3001;DHT22;1510;51.072;6.678;2022-11-15T14:32:22;13.80;84.60
3001;DHT22;1510;51.072;6.678;2022-11-15T14:34:53;13.90;85.40
3001;DHT22;1510;51.072;6.678;2022-11-15T14:37:22;13.70;85.40
3001;DHT22;1510;51.072;6.678;2022-11-15T14:39:51;13.70;85.30
3001;DHT22;1510;51.072;6.678;2022-11-15T14:42:22;13.70;85.20
3001;DHT22;1510;51.072;6.678;2022-11-15T14:45:00;13.70;86.10
3001;DHT22;1510;51.072;6.678;2022-11-15T14:47:26;13.60;86.40
3001;DHT22;1510;51.072;6.678;2022-11-15T14:49:53;13.60;87.40
3001;DHT22;1510;51.072;6.678;2022-11-15T14:52:25;13.60;88.80
3001;DHT22;1510;51.072;6.678;2022-11-15T14:54:54;13.50;88.30
3001;DHT22;1510;51.072;6.678;2022-11-15T14:57:21;13.60;88.10
3001;DHT22;1510;51.072;6.678;2022-11-15T14:59:48;13.50;89.10
3001;DHT22;1510;51.072;6.678;2022-11-15T15:02:17;13.50;89.20
3001;DHT22;1510;51.072;6.678;2022-11-15T15:04:45;13.40;89.70
3001;DHT22;1510;51.072;6.678;2022-11-15T15:07:12;13.40;90.20
3001;DHT22;1510;51.072;6.678;2022-11-15T15:09:39;13.40;90.50
3001;DHT22;1510;51.072;6.678;2022-11-15T15:12:14;13.30;90.70
3001;DHT22;1510;51.072;6.678;2022-11-15T15:14:42;13.30;90.60
3001;DHT22;1510;51.072;6.678;2022-11-15T15:17:11;13.30;90.90
3001;DHT22;1510;51.072;6.678;2022-11-15T15:23:14;13.20;91.30
3001;DHT22;1510;51.072;6.678;2022-11-15T15:26:11;13.00;91.70
3001;DHT22;1510;51.072;6.678;2022-11-15T15:28:40;12.90;92.20
3001;DHT22;1510;51.072;6.678;2022-11-15T15:31:08;12.90;92.20
3001;DHT22;1510;51.072;6.678;2022-11-15T15:33:35;12.80;92.10
3001;DHT22;1510;51.072;6.678;2022-11-15T15:36:01;12.80;92.50
3001;DHT22;1510;51.072;6.678;2022-11-15T15:38:28;12.80;92.80
3001;DHT22;1510;51.072;6.678;2022-11-15T15:40:56;12.70;93.00
3001;DHT22;1510;51.072;6.678;2022-11-15T15:43:25;12.70;93.30
3001;DHT22;1510;51.072;6.678;2022-11-15T15:45:55;12.60;93.40
3001;DHT22;1510;51.072;6.678;2022-11-15T15:48:22;12.60;93.60
3001;DHT22;1510;51.072;6.678;2022-11-15T15:50:49;12.60;93.90
3001;DHT22;1510;51.072;6.678;2022-11-15T15:53:16;12.60;93.90
3001;DHT22;1510;51.072;6.678;2022-11-15T15:55:42;12.60;94.00
3001;DHT22;1510;51.072;6.678;2022-11-15T15:58:09;12.70;93.90
3001;DHT22;1510;51.072;6.678;2022-11-15T16:00:36;12.70;93.90
3001;DHT22;1510;51.072;6.678;2022-11-15T16:03:05;12.70;93.80
3001;DHT22;1510;51.072;6.678;2022-11-15T16:05:32;12.80;93.60
3001;DHT22;1510;51.072;6.678;2022-11-15T16:07:59;12.70;93.50
3001;DHT22;1510;51.072;6.678;2022-11-15T16:10:27;12.80;93.80
3001;DHT22;1510;51.072;6.678;2022-11-15T16:12:56;12.80;93.90
3001;DHT22;1510;51.072;6.678;2022-11-15T16:15:24;12.80;94.00
3001;DHT22;1510;51.072;6.678;2022-11-15T16:17:53;12.70;94.20
3001;DHT22;1510;51.072;6.678;2022-11-15T16:20:35;12.70;94.10
3001;DHT22;1510;51.072;6.678;2022-11-15T16:23:04;12.70;94.00
3001;DHT22;1510;51.072;6.678;2022-11-15T16:25:34;12.80;94.00
3001;DHT22;1510;51.072;6.678;2022-11-15T16:28:03;12.80;94.20
3001;DHT22;1510;51.072;6.678;2022-11-15T16:30:30;12.80;94.30
3001;DHT22;1510;51.072;6.678;2022-11-15T16:32:56;12.80;94.50
3001;DHT22;1510;51.072;6.678;2022-11-15T16:35:23;12.70;94.50
3001;DHT22;1510;51.072;6.678;2022-11-15T16:37:51;12.60;94.90
3001;DHT22;1510;51.072;6.678;2022-11-15T16:40:27;12.60;95.00
3001;DHT22;1510;51.072;6.678;2022-11-15T16:42:55;12.60;95.10
3001;DHT22;1510;51.072;6.678;2022-11-15T16:45:22;12.60;95.30
3001;DHT22;1510;51.072;6.678;2022-11-15T16:47:49;12.50;95.20
3001;DHT22;1510;51.072;6.678;2022-11-15T16:50:21;12.50;95.30
3001;DHT22;1510;51.072;6.678;2022-11-15T16:52:52;12.50;95.40
3001;DHT22;1510;51.072;6.678;2022-11-15T16:56:10;12.50;95.20
3001;DHT22;1510;51.072;6.678;2022-11-15T16:58:54;12.50;95.30
3001;DHT22;1510;51.072;6.678;2022-11-15T17:04:34;12.50;95.30
3001;DHT22;1510;51.072;6.678;2022-11-15T17:05:04;12.60;95.40
3001;DHT22;1510;51.072;6.678;2022-11-15T17:07:48;12.50;95.40
3001;DHT22;1510;51.072;6.678;2022-11-15T17:10:24;12.60;95.60
3001;DHT22;1510;51.072;6.678;2022-11-15T17:13:13;12.60;95.70
3001;DHT22;1510;51.072;6.678;2022-11-15T17:16:03;12.50;95.70
3001;DHT22;1510;51.072;6.678;2022-11-15T17:18:30;12.50;96.40
3001;DHT22;1510;51.072;6.678;2022-11-15T17:20:57;12.50;96.70